PAGA 220317Z 2203/2224 12007KT P6SM VCSH SCT050
From batch tds/tafs/production/2024/5/22/h03_m20_tafs.cache.xml.gz
Issued (4 days ago)
Forecasts PAGA 220317Z 2203/2224 12007KT P6SM VCSH SCT050
FM220600 13008KT P6SM SCT050 BKN070
TAF AMD CYQM 220315Z 2203/2224 22010KT P6SM FEW040 BKN120 BKN240
From batch tds/tafs/production/2024/5/22/h03_m20_tafs.cache.xml.gz
Issued (4 days ago)
Forecasts TAF AMD CYQM 220315Z 2203/2224 22010KT P6SM FEW040 BKN120 BKN240
TEMPO 2203/2204 VRB12G22KT P6SM -SHRA VCTS SCT040CB BKN120 OVC240
FM220400 21008KT P6SM SCT040 BKN120
FM221500 24012KT P6SM BKN060
BECMG 2222/2224 VRB03KT RMK NXT FCST BY 220600Z
PAOM 220314Z 2203/2224 11011KT 2SM BR VCSH OVC015
From batch tds/tafs/production/2024/5/22/h03_m20_tafs.cache.xml.gz
Issued (4 days ago)
Forecasts PAOM 220314Z 2203/2224 11011KT 2SM BR VCSH OVC015
TEMPO 2203/2204 3/4SM BR
FM221200 04006KT P6SM OVC050
FM222100 06007KT P6SM -SHRA OVC035
KPIT 220313Z 2203/2306 19003KT P6SM FEW250
From batch tds/tafs/production/2024/5/22/h03_m20_tafs.cache.xml.gz
Issued (4 days ago)
Forecasts KPIT 220313Z 2203/2306 19003KT P6SM FEW250
FM221300 22010G18KT P6SM BKN200
FM221800 23012G18KT P6SM -SHRA VCTS BKN080CB
PROB30 2220/2224 -TSRA BKN040CB
FM230000 22010KT P6SM -SHRA VCTS SCT050 BKN080CB
KGLD 220313Z 2203/2224 33014KT P6SM -SHRA BKN070
From batch tds/tafs/production/2024/5/22/h03_m20_tafs.cache.xml.gz
Issued (4 days ago)
Forecasts KGLD 220313Z 2203/2224 33014KT P6SM -SHRA BKN070
TEMPO 2203/2205 4SM -SHRA
FM220500 31008KT P6SM BKN070
FM220900 27008KT P6SM SKC
FM222000 21008KT P6SM SKC
FM222300 17010KT P6SM FEW270
TAF AMD WMAP 220312Z 2203/2300 VRB03KT 9999 FEW017CB
From batch tds/tafs/production/2024/5/22/h03_m20_tafs.cache.xml.gz
Issued (4 days ago)
Forecasts TAF AMD WMAP 220312Z 2203/2300 VRB03KT 9999 FEW017CB
TEMPO 2203/2208 4000 TSRA FEW008 FEW016CB
KBRO 220312Z 2203/2224 14011G22KT P6SM SCT017 SCT021
From batch tds/tafs/production/2024/5/22/h03_m20_tafs.cache.xml.gz
Issued (4 days ago)
Forecasts KBRO 220312Z 2203/2224 14011G22KT P6SM SCT017 SCT021
FM221500 15016G24KT P6SM BKN026
KHRL 220312Z 2203/2224 14015KT P6SM BKN020
From batch tds/tafs/production/2024/5/22/h03_m20_tafs.cache.xml.gz
Issued (4 days ago)
Forecasts KHRL 220312Z 2203/2224 14015KT P6SM BKN020
FM221500 15016G24KT P6SM BKN026
FM221700 16022G29KT P6SM BKN050
KSUX 220312Z 2203/2224 30011KT P6SM FEW250
From batch tds/tafs/production/2024/5/22/h03_m20_tafs.cache.xml.gz
Issued (4 days ago)
Forecasts KSUX 220312Z 2203/2224 30011KT P6SM FEW250
FM220900 28008KT P6SM SCT250
FM221800 25010KT P6SM SCT040 SCT150
KMFE 220312Z 2203/2224 13014KT P6SM BKN019 OVC024
From batch tds/tafs/production/2024/5/22/h03_m20_tafs.cache.xml.gz
Issued (4 days ago)
Forecasts KMFE 220312Z 2203/2224 13014KT P6SM BKN019 OVC024
FM221300 15012G23KT P6SM BKN030
FM221700 15015G26KT P6SM BKN150
TAF KNYL 2203/2303 27006KT 9999 SKC QNH2972INS
From batch tds/tafs/production/2024/5/22/h03_m20_tafs.cache.xml.gz
Issued (4 days ago)
Forecasts TAF KNYL 2203/2303 27006KT 9999 SKC QNH2972INS
FM220700 18005KT 9999 SKC QNH2977INS
FM221500 26008KT 9999 SKC QNH2969INS T33/2123Z T17/2213Z
TAF KNXP 2203/2303 VRB04KT 9999 QNH2986INS
From batch tds/tafs/production/2024/5/22/h03_m20_tafs.cache.xml.gz
Issued (4 days ago)
Forecasts TAF KNXP 2203/2303 VRB04KT 9999 QNH2986INS
BECMG 2205/2207 27008KT 9999 SKC QNH2993INS
BECMG 2214/2216 VRB05KT 9999 SKC QNH2988INS T30/2221Z T18/2313Z
TAF KNKX 2203/2303 30005KT 9999 FEW030 QNH2992INS
From batch tds/tafs/production/2024/5/22/h03_m20_tafs.cache.xml.gz
Issued (4 days ago)
Forecasts TAF KNKX 2203/2303 30005KT 9999 FEW030 QNH2992INS
BECMG 2206/2208 33003KT 9999 SCT020 QNH2995INS
TEMPO 2209/2215 VRB02KT 6000 BR BKN015 QNH2993INS
FM221530 24006KT 9999 SCT018 QNH2996INS
BECMG 2222/2300 25012KT QNH2990INS T12/2209Z T19/2220Z
TAF KNFG 2203/2303 VRB05KT 9999 SKC QNH2992INS
From batch tds/tafs/production/2024/5/22/h03_m20_tafs.cache.xml.gz
Issued (4 days ago)
Forecasts TAF KNFG 2203/2303 VRB05KT 9999 SKC QNH2992INS
BECMG 2205/2207 OVC015 QNH2991INS
TEMPO 2209/2215 6000 BR
FM221830 24008KT 9999 SCT020 QNH2990INS
BECMG 2223/2301 VRB05KT QNH2990INS T14/2213Z T21/2321Z
TAF AMD WMKJ 220311Z 2203/2300 15006KT 9999 FEW017CB
From batch tds/tafs/production/2024/5/22/h03_m20_tafs.cache.xml.gz
Issued (4 days ago)
Forecasts TAF AMD WMKJ 220311Z 2203/2300 15006KT 9999 FEW017CB
TEMPO 2203/2208 4000 TSRA FEW016CB SCT018
TAF AMD CYQI 220311Z 2203/2212 21008KT 1/2SM FG VV002
From batch tds/tafs/production/2024/5/22/h03_m20_tafs.cache.xml.gz
Issued (4 days ago)
Forecasts TAF AMD CYQI 220311Z 2203/2212 21008KT 1/2SM FG VV002
TEMPO 2203/2212 2SM BR OVC003 RMK NXT FCST BY 220600Z
KFSD 220311Z 2203/2224 31010KT P6SM FEW200
From batch tds/tafs/production/2024/5/22/h03_m20_tafs.cache.xml.gz
Issued (4 days ago)
Forecasts KFSD 220311Z 2203/2224 31010KT P6SM FEW200
FM220600 29012KT P6SM SCT250
FM221800 25010G16KT P6SM SCT040 SCT150
PAOT 220311Z 2203/2224 18011KT P6SM OVC100
From batch tds/tafs/production/2024/5/22/h03_m20_tafs.cache.xml.gz
Issued (4 days ago)
Forecasts PAOT 220311Z 2203/2224 18011KT P6SM OVC100
FM220700 12007KT P6SM VCSH OVC025
TAF AMD CYBK 220311Z 2203/2212 VRB03KT P6SM SKC
From batch tds/tafs/production/2024/5/22/h03_m20_tafs.cache.xml.gz
Issued (4 days ago)
Forecasts TAF AMD CYBK 220311Z 2203/2212 VRB03KT P6SM SKC
PROB30 2203/2208 1/2SM FZFG VV002 RMK NXT FCST BY 220600Z
TAF AMD CYHK 220311Z 2203/2212 20010KT P6SM SCT003
From batch tds/tafs/production/2024/5/22/h03_m20_tafs.cache.xml.gz
Issued (4 days ago)
Forecasts TAF AMD CYHK 220311Z 2203/2212 20010KT P6SM SCT003
TEMPO 2203/2212 2SM BR BKN003
PROB30 2203/2208 1/2SM -SG FZFG OVC002 RMK FCST BASED ON AUTO OBS. NXT FCST BY 220600Z
KHON 220311Z 2203/2224 30007KT P6SM FEW250
From batch tds/tafs/production/2024/5/22/h03_m20_tafs.cache.xml.gz
Issued (4 days ago)
Forecasts KHON 220311Z 2203/2224 30007KT P6SM FEW250
FM220400 29010KT P6SM FEW250
FM221900 26011G17KT P6SM SCT050 SCT250
TAF AMD CYRT 220310Z 2203/2212 07007KT P6SM SCT005 OVC010
From batch tds/tafs/production/2024/5/22/h03_m20_tafs.cache.xml.gz
Issued (4 days ago)
Forecasts TAF AMD CYRT 220310Z 2203/2212 07007KT P6SM SCT005 OVC010
TEMPO 2203/2212 2SM BR OVC005
PROB40 2203/2208 1/2SM FZFG VV002 RMK NXT FCST BY 220600Z
KTPA 220310Z 2203/2306 08005KT P6SM SKC
From batch tds/tafs/production/2024/5/22/h03_m20_tafs.cache.xml.gz
Issued (4 days ago)
Forecasts KTPA 220310Z 2203/2306 08005KT P6SM SKC
FM221500 23007KT P6SM FEW040 SCT250
FM222000 29011KT P6SM SCT050
TAF AMD LFOJ 220310Z 2203/2303 23008KT 9999 SCT025 TX19/2215Z TN10/2203Z
From batch tds/tafs/production/2024/5/22/h03_m20_tafs.cache.xml.gz
Issued (4 days ago)
Forecasts TAF AMD LFOJ 220310Z 2203/2303 23008KT 9999 SCT025 TX19/2215Z TN10/2203Z
TEMPO 2203/2206 BKN005 BKN010
TEMPO 2206/2208 BKN012
TEMPO 2214/2222 4000 -SHRA SCT030TCU
PROB40
TEMPO 2215/2220 24015G25KT 2000 TSRA BKN025CB
PROB40
TEMPO 2222/2303 4000 -SHRA SCT030TCU
KENW 220309Z 2203/2224 20020G35KT P6SM BKN060 WS020/19050KT
From batch tds/tafs/production/2024/5/22/h03_m20_tafs.cache.xml.gz
Issued (4 days ago)
Forecasts KENW 220309Z 2203/2224 20020G35KT P6SM BKN060 WS020/19050KT
FM220400 20020G35KT 6SM -TSRA BR BKN060CB WS020/19050KT
TEMPO 2204/2206 22020G40KT 2SM TSRA BR OVC035CB
FM220600 22016G27KT P6SM BKN060 WS020/21050KT
FM220900 24018G29KT P6SM BKN025
FM221600 25015G23KT P6SM SCT035
talk